createdAt,value
2018-08-16T00:00:57.043Z,14.73
2018-08-16T00:01:59.241Z,14.80
2018-08-16T00:03:01.559Z,15.55
2018-08-16T00:04:03.867Z,13.83
2018-08-16T00:05:06.121Z,15.70
2018-08-16T00:06:08.324Z,16.45
2018-08-16T00:07:10.546Z,14.30
2018-08-16T00:08:13.055Z,13.03
2018-08-16T00:09:15.301Z,13.40
2018-08-16T00:10:18.257Z,15.45
2018-08-16T00:11:20.490Z,15.60
2018-08-16T00:12:22.696Z,12.95
2018-08-16T00:13:24.893Z,14.00
2018-08-16T00:14:27.151Z,13.00
2018-08-16T00:15:29.333Z,17.65
2018-08-16T00:16:31.518Z,20.72
2018-08-16T00:17:33.753Z,12.75
2018-08-16T00:18:35.962Z,15.25
2018-08-16T00:19:38.706Z,14.73
2018-08-16T00:20:40.871Z,15.75
2018-08-16T00:21:43.107Z,14.68
2018-08-16T00:22:46.172Z,14.50
2018-08-16T00:23:48.383Z,13.18
2018-08-16T00:24:50.593Z,15.53
2018-08-16T00:25:52.798Z,18.57
2018-08-16T00:26:54.955Z,15.93
2018-08-16T00:27:57.214Z,14.03
2018-08-16T00:28:59.390Z,15.40
2018-08-16T00:30:01.629Z,18.35
2018-08-16T00:31:03.928Z,13.90
2018-08-16T00:32:06.184Z,13.95
2018-08-16T00:33:08.397Z,17.02
2018-08-16T00:34:10.594Z,14.28
2018-08-16T00:35:12.913Z,16.77
2018-08-16T00:36:15.078Z,15.72
2018-08-16T00:37:17.259Z,15.50
2018-08-16T00:38:19.458Z,16.00
2018-08-16T00:39:21.643Z,15.32
2018-08-16T00:40:26.756Z,13.10
2018-08-16T00:41:28.939Z,15.72
2018-08-16T00:42:33.940Z,15.63
2018-08-16T00:43:36.101Z,14.10
2018-08-16T00:44:38.298Z,16.42
2018-08-16T00:45:40.481Z,16.02
2018-08-16T00:46:42.682Z,12.93
2018-08-16T00:47:44.851Z,13.60
2018-08-16T00:48:47.037Z,16.15
2018-08-16T00:49:49.261Z,17.25
2018-08-16T00:50:51.446Z,13.22
2018-08-16T00:51:53.625Z,16.73
2018-08-16T00:52:55.799Z,17.27
2018-08-16T00:53:57.970Z,15.00
2018-08-16T00:55:00.440Z,13.95
2018-08-16T00:56:02.666Z,16.35
2018-08-16T00:57:04.869Z,14.75
2018-08-16T00:58:07.063Z,14.60
2018-08-16T00:59:09.245Z,14.07
2018-08-16T01:00:13.786Z,14.33
2018-08-16T01:01:15.986Z,17.60
2018-08-16T01:02:18.185Z,13.78
2018-08-16T01:03:20.416Z,14.65
2018-08-16T01:04:22.605Z,19.32
2018-08-16T01:05:24.785Z,15.83
2018-08-16T01:06:27.001Z,17.55
2018-08-16T01:07:29.239Z,15.20
2018-08-16T01:08:31.432Z,13.08
2018-08-16T01:09:33.599Z,15.00
2018-08-16T01:10:35.800Z,17.12
2018-08-16T01:11:37.960Z,15.80
2018-08-16T01:12:40.705Z,12.78
2018-08-16T01:13:42.894Z,15.40
2018-08-16T01:14:45.137Z,16.35
2018-08-16T01:15:47.333Z,16.40
2018-08-16T01:16:49.538Z,15.28
2018-08-16T01:17:51.710Z,15.38
2018-08-16T01:18:53.881Z,14.33
2018-08-16T01:19:56.077Z,15.83
2018-08-16T01:20:58.290Z,14.85
2018-08-16T01:22:00.466Z,17.02
2018-08-16T01:23:02.650Z,19.15
2018-08-16T01:24:04.853Z,19.27
2018-08-16T01:25:08.214Z,14.98
2018-08-16T01:26:10.401Z,15.78
2018-08-16T01:27:12.636Z,17.40
2018-08-16T01:28:14.810Z,18.25
2018-08-16T01:29:17.005Z,17.92
2018-08-16T01:30:19.213Z,16.10
2018-08-16T01:31:21.570Z,14.00
2018-08-16T01:32:23.762Z,17.42
2018-08-16T01:33:25.925Z,16.75
2018-08-16T01:34:28.120Z,14.00
2018-08-16T01:35:30.310Z,16.93
2018-08-16T01:36:32.494Z,15.48
2018-08-16T01:37:34.689Z,14.73
2018-08-16T01:38:36.846Z,15.98
2018-08-16T01:39:39.014Z,16.73
2018-08-16T01:40:41.165Z,16.23
2018-08-16T01:41:43.337Z,15.10
2018-08-16T01:42:45.485Z,17.95
2018-08-16T01:43:47.669Z,16.17
2018-08-16T01:44:49.822Z,16.73
2018-08-16T01:45:51.999Z,16.73
2018-08-16T01:46:54.171Z,16.20
2018-08-16T01:47:56.342Z,13.53
2018-08-16T01:48:58.791Z,14.20
2018-08-16T01:50:00.977Z,15.35
2018-08-16T01:51:03.183Z,17.37
2018-08-16T01:52:05.486Z,16.65
2018-08-16T01:53:07.818Z,13.65
2018-08-16T01:54:10.017Z,15.00
2018-08-16T01:55:12.177Z,17.23
2018-08-16T01:56:14.355Z,16.87
2018-08-16T01:57:16.546Z,14.95
2018-08-16T01:58:18.721Z,15.65
2018-08-16T01:59:20.926Z,16.10
2018-08-16T02:00:23.098Z,14.58
2018-08-16T02:01:25.278Z,16.30
2018-08-16T02:02:27.473Z,16.90
2018-08-16T02:03:29.720Z,16.77
2018-08-16T02:04:31.894Z,14.70
2018-08-16T02:05:34.097Z,17.02
2018-08-16T02:06:36.269Z,14.00
2018-08-16T02:07:38.443Z,15.30
2018-08-16T02:08:40.641Z,16.93
2018-08-16T02:09:42.816Z,15.98
2018-08-16T02:10:45.007Z,12.75
2018-08-16T02:11:47.185Z,17.07
2018-08-16T02:12:49.356Z,15.35
2018-08-16T02:13:51.544Z,12.18
2018-08-16T02:14:53.734Z,15.13
2018-08-16T02:15:55.897Z,17.32
2018-08-16T02:16:58.094Z,12.60
2018-08-16T02:18:00.305Z,12.45
2018-08-16T02:19:02.488Z,15.15
2018-08-16T02:20:05.854Z,14.43
2018-08-16T02:21:08.017Z,13.60
2018-08-16T02:22:10.193Z,12.93
2018-08-16T02:23:12.346Z,13.72
2018-08-16T02:24:14.524Z,16.10
2018-08-16T02:25:16.768Z,18.07
2018-08-16T02:26:18.947Z,16.02
2018-08-16T02:27:21.129Z,15.72
2018-08-16T02:28:23.993Z,12.85
2018-08-16T02:29:26.155Z,13.28
2018-08-16T02:30:28.343Z,15.45
2018-08-16T02:31:31.005Z,14.75
2018-08-16T02:32:33.249Z,12.63
2018-08-16T02:33:35.425Z,17.12
2018-08-16T02:34:37.664Z,15.30
2018-08-16T02:35:39.817Z,16.40
2018-08-16T02:36:41.994Z,13.62
2018-08-16T02:37:44.174Z,17.52
2018-08-16T02:38:46.321Z,14.60
2018-08-16T02:39:48.491Z,16.20
2018-08-16T02:40:50.658Z,16.07
2018-08-16T02:41:52.867Z,15.13
2018-08-16T02:42:55.051Z,13.95
2018-08-16T02:43:57.236Z,15.20
2018-08-16T02:44:59.428Z,14.47
2018-08-16T02:46:01.625Z,13.98
2018-08-16T02:47:03.806Z,16.93
2018-08-16T02:48:06.091Z,16.00
2018-08-16T02:49:08.262Z,14.23
2018-08-16T02:50:10.442Z,15.38
2018-08-16T02:51:12.690Z,16.27
2018-08-16T02:52:14.865Z,14.03
2018-08-16T02:53:17.097Z,17.20
2018-08-16T02:54:19.226Z,16.10
2018-08-16T02:55:21.353Z,16.95
2018-08-16T02:56:23.562Z,15.03
2018-08-16T02:57:25.753Z,18.73
2018-08-16T02:58:27.970Z,16.57
2018-08-16T02:59:30.150Z,16.07
2018-08-16T03:00:32.339Z,15.40
2018-08-16T03:01:34.518Z,18.50
2018-08-16T03:02:36.726Z,16.65
2018-08-16T03:03:38.885Z,18.92
2018-08-16T03:04:41.030Z,17.65
2018-08-16T03:05:43.182Z,18.17
2018-08-16T03:06:45.345Z,15.88
2018-08-16T03:07:47.499Z,16.70
2018-08-16T03:08:49.646Z,14.70
2018-08-16T03:09:51.802Z,13.98
2018-08-16T03:10:53.982Z,15.08
2018-08-16T03:11:56.140Z,17.62
2018-08-16T03:12:58.338Z,15.85
2018-08-16T03:14:00.497Z,14.75
2018-08-16T03:15:02.894Z,15.95
2018-08-16T03:16:05.259Z,14.78
2018-08-16T03:17:07.442Z,15.23
2018-08-16T03:18:09.707Z,18.10
2018-08-16T03:19:11.874Z,13.50
2018-08-16T03:20:14.057Z,18.12
2018-08-16T03:21:16.243Z,18.62
2018-08-16T03:22:18.372Z,16.73
2018-08-16T03:23:20.541Z,13.00
2018-08-16T03:24:22.706Z,21.30
2018-08-16T03:25:24.853Z,18.73
2018-08-16T03:26:27.021Z,13.35
2018-08-16T03:27:29.193Z,16.77
2018-08-16T03:28:31.349Z,14.87
2018-08-16T03:29:33.505Z,15.38
2018-08-16T03:30:35.674Z,16.50
2018-08-16T03:31:37.870Z,15.53
2018-08-16T03:32:40.029Z,16.05
2018-08-16T03:33:42.198Z,15.18
2018-08-16T03:34:44.345Z,18.45
2018-08-16T03:35:46.498Z,16.60
2018-08-16T03:36:48.668Z,14.33
2018-08-16T03:37:50.833Z,14.20
2018-08-16T03:38:53.058Z,17.00
2018-08-16T03:39:55.215Z,16.32
2018-08-16T03:40:57.358Z,15.00
2018-08-16T03:41:59.650Z,15.43
2018-08-16T03:43:01.805Z,14.20
2018-08-16T03:44:04.236Z,17.62
2018-08-16T03:45:07.169Z,16.80
2018-08-16T03:46:09.344Z,16.82
2018-08-16T03:47:11.506Z,16.75
2018-08-16T03:48:13.764Z,13.65
2018-08-16T03:49:15.878Z,15.55
2018-08-16T03:50:18.025Z,15.38
2018-08-16T03:51:20.163Z,15.40
2018-08-16T03:52:22.315Z,14.70
2018-08-16T03:53:24.473Z,15.43
2018-08-16T03:54:26.654Z,17.85
2018-08-16T03:55:28.901Z,14.95
2018-08-16T03:56:31.151Z,13.88
2018-08-16T03:57:33.369Z,15.63
2018-08-16T03:58:35.570Z,13.53
2018-08-16T03:59:37.716Z,15.80
2018-08-16T04:00:39.902Z,16.95
2018-08-16T04:01:42.075Z,16.23
2018-08-16T04:02:44.251Z,16.55
2018-08-16T04:03:46.415Z,20.45
2018-08-16T04:04:48.562Z,17.42
2018-08-16T04:05:50.733Z,16.80
2018-08-16T04:06:52.949Z,17.25
2018-08-16T04:07:55.106Z,16.80
2018-08-16T04:08:57.349Z,15.28
2018-08-16T04:09:59.518Z,16.55
2018-08-16T04:11:01.706Z,17.15
2018-08-16T04:12:04.382Z,14.30
2018-08-16T04:13:06.641Z,19.20
2018-08-16T04:14:08.805Z,18.85
2018-08-16T04:15:10.965Z,21.07
2018-08-16T04:16:13.150Z,20.80
2018-08-16T04:17:15.329Z,20.37
2018-08-16T04:18:17.472Z,19.42
2018-08-16T04:19:19.617Z,20.68
2018-08-16T04:20:21.780Z,20.30
2018-08-16T04:21:23.914Z,15.20
2018-08-16T04:22:26.102Z,16.02
2018-08-16T04:23:28.286Z,20.68
2018-08-16T04:24:30.504Z,17.57
2018-08-16T04:25:32.711Z,18.10
2018-08-16T04:26:34.881Z,19.17
2018-08-16T04:27:37.062Z,16.85
2018-08-16T04:28:39.210Z,17.02
2018-08-16T04:29:41.381Z,19.25
2018-08-16T04:30:43.590Z,19.50
2018-08-16T04:31:45.739Z,15.38
2018-08-16T04:32:47.891Z,18.92
2018-08-16T04:33:50.044Z,17.62
2018-08-16T04:34:52.214Z,17.73
2018-08-16T04:35:54.384Z,14.83
2018-08-16T04:36:56.545Z,16.57
2018-08-16T04:37:58.735Z,17.10
2018-08-16T04:39:00.885Z,15.28
2018-08-16T04:40:03.086Z,16.52
2018-08-16T04:41:05.762Z,17.30
2018-08-16T04:42:07.923Z,15.48
2018-08-16T04:43:10.076Z,20.15
2018-08-16T04:44:12.253Z,15.78
2018-08-16T04:45:14.448Z,16.42
2018-08-16T04:46:16.627Z,19.65
2018-08-16T04:47:18.789Z,16.50
2018-08-16T04:48:20.956Z,14.75
2018-08-16T04:49:23.128Z,17.65
2018-08-16T04:50:25.295Z,17.62
2018-08-16T04:51:27.458Z,15.18
2018-08-16T04:52:29.637Z,16.57
2018-08-16T04:53:31.815Z,21.25
2018-08-16T04:54:34.035Z,20.02
2018-08-16T04:55:36.225Z,18.98
2018-08-16T04:56:38.390Z,20.90
2018-08-16T04:57:40.540Z,19.62
2018-08-16T04:58:42.699Z,19.15
2018-08-16T04:59:44.854Z,19.67
2018-08-16T05:00:47.005Z,19.15
2018-08-16T05:01:49.248Z,19.57
2018-08-16T05:02:51.431Z,18.45
2018-08-16T05:03:53.582Z,18.70
2018-08-16T05:04:55.766Z,21.02
2018-08-16T05:05:57.948Z,20.08
2018-08-16T05:07:00.117Z,19.05
2018-08-16T05:08:02.257Z,18.70
2018-08-16T05:09:06.690Z,16.40
2018-08-16T05:10:09.620Z,18.85
2018-08-16T05:11:11.928Z,20.12
2018-08-16T05:12:14.038Z,15.53
2018-08-16T05:13:16.188Z,19.77
2018-08-16T05:14:18.334Z,20.12
2018-08-16T05:15:20.493Z,17.95
2018-08-16T05:16:22.686Z,14.07
2018-08-16T05:17:24.910Z,20.60
2018-08-16T05:18:27.041Z,20.08
2018-08-16T05:19:29.220Z,17.60
2018-08-16T05:20:31.377Z,18.37
2018-08-16T05:21:33.541Z,17.60
2018-08-16T05:22:35.755Z,15.58
2018-08-16T05:23:37.930Z,18.42
2018-08-16T05:24:40.075Z,18.45
2018-08-16T05:25:42.263Z,18.82
2018-08-16T05:26:44.451Z,16.67
2018-08-16T05:27:46.602Z,18.37
2018-08-16T05:28:48.803Z,20.75
2018-08-16T05:29:50.951Z,16.32
2018-08-16T05:30:53.101Z,18.02
2018-08-16T05:31:55.257Z,18.87
2018-08-16T05:32:57.451Z,20.48
2018-08-16T05:33:59.613Z,15.28
2018-08-16T05:35:01.802Z,22.07
2018-08-16T05:36:04.013Z,15.00
2018-08-16T05:37:06.169Z,15.20
2018-08-16T05:38:08.362Z,20.77
2018-08-16T05:39:11.662Z,16.37
2018-08-16T05:40:13.868Z,19.82
2018-08-16T05:41:16.028Z,17.80
2018-08-16T05:42:18.208Z,19.70
2018-08-16T05:43:20.420Z,19.07
2018-08-16T05:44:22.515Z,20.55
2018-08-16T05:45:24.706Z,18.80
2018-08-16T05:46:26.949Z,19.10
2018-08-16T05:47:29.144Z,18.10
2018-08-16T05:48:31.342Z,17.62
2018-08-16T05:49:33.497Z,18.70
2018-08-16T05:50:35.690Z,22.80
2018-08-16T05:51:37.914Z,20.68
2018-08-16T05:52:40.507Z,18.70
2018-08-16T05:53:42.681Z,16.15
2018-08-16T05:54:44.838Z,18.62
2018-08-16T05:55:46.988Z,21.75
2018-08-16T05:56:49.152Z,19.10
2018-08-16T05:57:51.310Z,18.57
2018-08-16T05:58:53.487Z,22.22
2018-08-16T05:59:55.694Z,19.60
2018-08-16T06:00:57.878Z,14.80
2018-08-16T06:02:00.100Z,20.15
2018-08-16T06:03:02.317Z,20.00
2018-08-16T06:04:04.506Z,19.45
2018-08-16T06:05:07.641Z,20.05
2018-08-16T06:06:09.859Z,19.05
2018-08-16T06:07:12.114Z,20.43
2018-08-16T06:08:14.318Z,20.10
2018-08-16T06:09:16.465Z,18.70
2018-08-16T06:10:18.649Z,18.37
2018-08-16T06:11:20.818Z,21.20
2018-08-16T06:12:23.020Z,19.60
2018-08-16T06:13:25.239Z,22.37
2018-08-16T06:14:27.447Z,20.97
2018-08-16T06:15:29.750Z,20.02
2018-08-16T06:16:31.870Z,20.48
2018-08-16T06:17:34.107Z,18.02
2018-08-16T06:18:36.297Z,19.20
2018-08-16T06:19:38.499Z,18.65
2018-08-16T06:20:40.686Z,18.37
2018-08-16T06:21:42.871Z,17.98
2018-08-16T06:22:45.028Z,15.23
2018-08-16T06:23:47.202Z,18.32
2018-08-16T06:24:49.393Z,21.00
2018-08-16T06:25:51.557Z,21.00
2018-08-16T06:26:53.734Z,18.57
2018-08-16T06:27:55.940Z,19.40
2018-08-16T06:28:58.142Z,14.55
2018-08-16T06:30:00.289Z,16.07
2018-08-16T06:31:02.525Z,19.27
2018-08-16T06:32:04.655Z,18.37
2018-08-16T06:33:06.871Z,14.95
2018-08-16T06:34:09.078Z,20.55
2018-08-16T06:35:11.384Z,17.30
2018-08-16T06:36:13.578Z,15.00
2018-08-16T06:37:15.796Z,17.07
2018-08-16T06:38:18.056Z,15.70
2018-08-16T06:39:20.228Z,17.45
2018-08-16T06:40:22.450Z,19.12
2018-08-16T06:41:24.652Z,15.65
2018-08-16T06:42:26.826Z,14.75
2018-08-16T06:43:29.000Z,16.35
2018-08-16T06:44:31.174Z,17.17
2018-08-16T06:45:33.386Z,19.92
2018-08-16T06:46:35.590Z,16.90
2018-08-16T06:47:37.821Z,18.60
2018-08-16T06:48:40.002Z,16.32
2018-08-16T06:49:42.566Z,16.87
2018-08-16T06:50:44.747Z,18.40
2018-08-16T06:51:46.952Z,17.32
2018-08-16T06:52:49.130Z,16.48
2018-08-16T06:53:51.331Z,19.40
2018-08-16T06:54:53.529Z,16.75
2018-08-16T06:55:55.707Z,17.32
2018-08-16T06:56:57.910Z,17.60
2018-08-16T06:58:00.075Z,15.23
2018-08-16T06:59:02.289Z,18.32
2018-08-16T07:00:05.032Z,18.98
2018-08-16T07:01:07.218Z,16.82
2018-08-16T07:02:09.427Z,17.30
2018-08-16T07:03:11.641Z,15.75
2018-08-16T07:04:13.861Z,17.10
2018-08-16T07:05:16.049Z,21.35
2018-08-16T07:06:18.212Z,15.08
2018-08-16T07:07:20.398Z,16.57
2018-08-16T07:08:22.646Z,20.27
2018-08-16T07:09:24.827Z,15.78
2018-08-16T07:11:36.201Z,14.43
2018-08-16T07:12:38.419Z,15.20
2018-08-16T07:13:40.614Z,14.18
2018-08-16T07:14:42.785Z,15.03
2018-08-16T07:15:44.943Z,20.02
2018-08-16T07:16:47.145Z,21.07
2018-08-16T07:17:49.287Z,14.75
2018-08-16T07:18:51.467Z,18.57
2018-08-16T07:19:53.642Z,18.17
2018-08-16T07:20:55.893Z,14.18
2018-08-16T07:21:58.085Z,16.07
2018-08-16T07:23:00.242Z,15.45
2018-08-16T07:24:02.432Z,15.18
2018-08-16T07:25:05.047Z,12.82
2018-08-16T07:26:07.428Z,17.92
2018-08-16T07:27:09.607Z,14.85
2018-08-16T07:28:11.776Z,16.65
2018-08-16T07:29:13.911Z,19.57
2018-08-16T07:30:16.070Z,12.70
2018-08-16T07:31:18.218Z,17.32
2018-08-16T07:32:20.402Z,18.57
2018-08-16T07:33:22.555Z,16.62
2018-08-16T07:34:24.726Z,19.25
2018-08-16T07:35:26.893Z,19.35
2018-08-16T07:36:29.047Z,15.90
2018-08-16T07:37:31.273Z,12.70
2018-08-16T07:38:33.438Z,14.20
2018-08-16T07:39:35.604Z,18.48
2018-08-16T07:40:37.817Z,14.03
2018-08-16T07:41:40.006Z,16.37
2018-08-16T07:42:42.161Z,18.57
2018-08-16T07:43:44.323Z,14.98
2018-08-16T07:44:46.511Z,14.35
2018-08-16T07:45:48.804Z,17.65
2018-08-16T07:46:50.844Z,16.55
2018-08-16T07:47:53.016Z,15.48
2018-08-16T07:48:55.205Z,17.75
2018-08-16T07:49:57.388Z,15.93
2018-08-16T07:50:59.593Z,13.90
2018-08-16T07:52:01.760Z,13.35
2018-08-16T07:53:03.953Z,14.10
2018-08-16T07:54:06.129Z,13.95
2018-08-16T07:55:09.150Z,14.75
2018-08-16T07:56:11.354Z,15.05
2018-08-16T07:57:13.544Z,16.42
2018-08-16T07:58:15.794Z,14.68
2018-08-16T07:59:17.942Z,14.18
2018-08-16T08:00:20.112Z,15.98
2018-08-16T08:01:22.280Z,16.42
2018-08-16T08:02:24.501Z,16.07
2018-08-16T08:03:26.715Z,15.48
2018-08-16T08:04:28.963Z,21.35
2018-08-16T08:05:31.170Z,13.65
2018-08-16T08:06:33.371Z,15.18
2018-08-16T08:07:35.541Z,13.93
2018-08-16T08:08:37.759Z,14.60
2018-08-16T08:09:39.958Z,12.90
2018-08-16T08:10:42.101Z,14.20
2018-08-16T08:11:44.293Z,13.70
2018-08-16T08:12:46.472Z,15.60
2018-08-16T08:13:48.621Z,13.05
2018-08-16T08:14:50.818Z,14.65
2018-08-16T08:15:53.083Z,13.40
2018-08-16T08:16:55.255Z,13.48
2018-08-16T08:17:57.463Z,16.15
2018-08-16T08:18:59.690Z,15.58
2018-08-16T08:20:01.936Z,14.18
2018-08-16T08:21:04.144Z,16.82
2018-08-16T08:22:06.367Z,14.30
2018-08-16T08:23:08.547Z,12.25
2018-08-16T08:24:10.745Z,14.43
2018-08-16T08:25:13.840Z,17.80
2018-08-16T08:26:16.055Z,18.52
2018-08-16T08:27:18.205Z,11.18
2018-08-16T08:28:20.398Z,14.63
2018-08-16T08:29:22.601Z,14.13
2018-08-16T08:30:24.795Z,10.32
2018-08-16T08:31:27.549Z,12.40
2018-08-16T08:32:29.749Z,14.87
2018-08-16T08:33:31.913Z,12.18
2018-08-16T08:34:34.071Z,14.68
2018-08-16T08:35:36.262Z,13.55
2018-08-16T08:36:50.009Z,11.05
2018-08-16T08:38:01.533Z,13.20
2018-08-16T08:39:06.175Z,15.10
2018-08-16T08:40:08.367Z,12.78
2018-08-16T08:41:10.553Z,14.58
2018-08-16T08:42:12.691Z,15.75
2018-08-16T08:43:27.528Z,13.65
2018-08-16T08:44:29.703Z,12.40
2018-08-16T08:45:31.889Z,11.73
2018-08-16T08:46:34.058Z,16.17
2018-08-16T08:47:41.932Z,16.30
2018-08-16T08:48:44.143Z,14.28
2018-08-16T08:49:46.312Z,12.23
2018-08-16T08:50:48.480Z,15.25
2018-08-16T08:51:51.777Z,15.80
2018-08-16T08:53:04.258Z,13.70
2018-08-16T08:54:50.150Z,13.22
2018-08-16T08:56:03.894Z,14.53
2018-08-16T08:57:17.467Z,13.65
2018-08-16T08:58:31.050Z,13.08
2018-08-16T08:59:33.203Z,13.90
2018-08-16T09:00:35.391Z,14.58
2018-08-16T09:01:37.603Z,12.20
2018-08-16T09:02:39.776Z,11.80
2018-08-16T09:03:41.940Z,13.03
2018-08-16T09:04:44.160Z,13.80
2018-08-16T09:05:46.335Z,12.90
2018-08-16T09:06:48.557Z,13.60
2018-08-16T09:07:50.653Z,13.58
2018-08-16T09:08:52.830Z,11.40
2018-08-16T09:11:18.110Z,12.00
2018-08-16T09:12:31.863Z,10.13
2018-08-16T09:13:45.582Z,12.30
2018-08-16T09:14:59.195Z,12.53
2018-08-16T09:16:04.200Z,11.65
2018-08-16T09:17:06.369Z,12.70
2018-08-16T09:18:08.542Z,11.50
2018-08-16T09:19:11.283Z,14.35
2018-08-16T09:20:13.479Z,11.22
2018-08-16T09:21:15.866Z,13.40
2018-08-16T09:22:18.120Z,14.05
2018-08-16T09:23:20.298Z,10.38
2018-08-16T09:24:22.492Z,13.08
2018-08-16T09:25:31.379Z,13.32
2018-08-16T09:26:39.398Z,13.55
2018-08-16T09:27:41.561Z,11.48
2018-08-16T09:28:43.730Z,11.28
2018-08-16T09:30:23.837Z,12.90
2018-08-16T09:31:37.489Z,12.03
2018-08-16T09:32:51.145Z,11.55
2018-08-16T09:34:04.665Z,13.05
2018-08-16T09:35:06.891Z,13.55
2018-08-16T09:36:09.058Z,10.10
2018-08-16T09:37:15.828Z,14.83
2018-08-16T09:38:17.992Z,13.45
2018-08-16T09:39:20.235Z,10.60
2018-08-16T09:40:22.521Z,10.10
2018-08-16T09:41:24.699Z,10.80
2018-08-16T09:42:26.885Z,9.60
2018-08-16T09:43:29.036Z,14.45
2018-08-16T09:44:31.218Z,10.75
2018-08-16T09:47:48.356Z,11.60
2018-08-16T09:48:50.557Z,11.53
2018-08-16T09:49:52.734Z,12.40
2018-08-16T09:50:54.894Z,12.70
2018-08-16T09:51:57.128Z,12.60
2018-08-16T09:52:59.290Z,12.33
2018-08-16T09:54:01.433Z,13.18
2018-08-16T09:55:03.663Z,11.80
2018-08-16T09:56:05.833Z,11.12
2018-08-16T09:57:09.026Z,14.23
2018-08-16T09:58:11.232Z,11.33
2018-08-16T09:59:13.468Z,11.20
2018-08-16T10:00:15.679Z,11.57
2018-08-16T10:01:17.847Z,14.05
2018-08-16T10:03:44.879Z,13.00
2018-08-16T10:04:47.055Z,12.98
2018-08-16T10:05:49.221Z,11.08
2018-08-16T10:06:51.500Z,9.73
2018-08-16T10:07:53.797Z,11.55
2018-08-16T10:08:56.496Z,10.23
2018-08-16T10:09:58.643Z,10.65
2018-08-16T10:11:00.791Z,7.80
2018-08-16T10:12:03.384Z,9.95
2018-08-16T10:13:06.034Z,9.23
2018-08-16T10:14:08.233Z,11.33
2018-08-16T10:15:10.418Z,9.08
2018-08-16T10:16:12.582Z,9.58
2018-08-16T10:17:14.734Z,12.40
2018-08-16T10:18:16.886Z,11.90
2018-08-16T10:19:19.385Z,10.28
2018-08-16T10:20:21.557Z,9.58
2018-08-16T10:21:23.745Z,9.83
2018-08-16T10:22:25.943Z,8.85
2018-08-16T10:23:28.093Z,10.80
2018-08-16T10:24:30.262Z,10.15
2018-08-16T10:25:32.439Z,9.20
2018-08-16T10:26:34.693Z,12.58
2018-08-16T10:27:36.918Z,10.45
2018-08-16T10:28:39.166Z,9.20
2018-08-16T10:29:41.330Z,12.50
2018-08-16T10:30:43.519Z,10.55
2018-08-16T10:31:45.691Z,9.03
2018-08-16T10:32:47.854Z,9.73
2018-08-16T10:33:50.006Z,9.58
2018-08-16T10:34:52.158Z,11.12
2018-08-16T10:35:54.301Z,8.65
2018-08-16T10:36:56.476Z,10.23
2018-08-16T10:37:58.613Z,9.63
2018-08-16T10:39:00.818Z,9.63
2018-08-16T10:40:03.081Z,9.93
2018-08-16T10:41:06.013Z,10.63
2018-08-16T10:42:08.162Z,10.70
2018-08-16T10:43:10.313Z,9.95
2018-08-16T10:44:13.198Z,10.80
2018-08-16T10:45:15.343Z,12.63
2018-08-16T10:46:17.588Z,9.60
2018-08-16T10:47:19.769Z,12.55
2018-08-16T10:48:21.967Z,11.03
2018-08-16T10:49:24.123Z,9.00
2018-08-16T10:50:26.286Z,10.38
2018-08-16T10:51:28.446Z,12.20
2018-08-16T10:52:30.617Z,8.43
2018-08-16T10:53:32.825Z,10.40
2018-08-16T10:54:34.997Z,9.08
2018-08-16T10:55:37.188Z,9.35
2018-08-16T10:56:39.348Z,10.82
2018-08-16T10:57:41.527Z,10.03
2018-08-16T10:58:43.721Z,9.78
2018-08-16T10:59:45.874Z,8.88
2018-08-16T11:00:48.073Z,9.45
2018-08-16T11:02:59.098Z,9.38
2018-08-16T11:04:01.275Z,8.28
2018-08-16T11:05:03.927Z,8.35
2018-08-16T11:06:06.127Z,10.30
2018-08-16T11:07:08.437Z,7.67
2018-08-16T11:08:10.613Z,10.58
2018-08-16T11:09:12.795Z,10.55
2018-08-16T11:10:14.966Z,8.43
2018-08-16T11:11:17.181Z,10.08
2018-08-16T11:12:19.326Z,10.23
2018-08-16T11:13:21.911Z,10.45
2018-08-16T11:14:24.062Z,8.90
2018-08-16T11:15:26.262Z,10.58
2018-08-16T11:16:28.426Z,7.30
2018-08-16T11:17:30.583Z,11.50
2018-08-16T11:18:32.742Z,8.13
2018-08-16T11:19:34.919Z,7.28
2018-08-16T11:20:37.262Z,7.83
2018-08-16T11:21:39.464Z,9.25
2018-08-16T11:22:41.610Z,9.00
2018-08-16T11:23:43.741Z,7.75
2018-08-16T11:24:45.873Z,9.58
2018-08-16T11:25:48.058Z,9.50
2018-08-16T11:26:50.243Z,8.03
2018-08-16T11:27:52.421Z,11.00
2018-08-16T11:28:54.610Z,9.08
2018-08-16T11:29:56.761Z,8.70
2018-08-16T11:30:58.948Z,9.38
2018-08-16T11:32:01.150Z,8.08
2018-08-16T11:33:03.352Z,8.63
2018-08-16T11:34:05.570Z,7.53
2018-08-16T11:35:07.816Z,9.18
2018-08-16T11:36:09.894Z,9.15
2018-08-16T11:37:12.038Z,9.53
2018-08-16T11:38:14.199Z,10.82
2018-08-16T11:39:16.384Z,8.80
2018-08-16T11:40:18.533Z,7.53
2018-08-16T11:41:20.735Z,10.25
2018-08-16T11:42:22.881Z,8.88
2018-08-16T11:43:25.090Z,9.35
2018-08-16T11:44:27.233Z,12.15
2018-08-16T11:45:29.394Z,10.58
2018-08-16T11:46:31.611Z,11.43
2018-08-16T11:47:33.761Z,7.85
2018-08-16T11:48:35.914Z,12.18
2018-08-16T11:49:38.094Z,11.57
2018-08-16T11:50:40.279Z,10.80
2018-08-16T11:51:42.445Z,10.13
2018-08-16T11:52:44.593Z,10.90
2018-08-16T11:53:46.794Z,8.88
2018-08-16T11:54:48.982Z,8.20
2018-08-16T11:55:51.150Z,9.58
2018-08-16T11:56:53.320Z,9.90
2018-08-16T11:57:55.496Z,7.40
2018-08-16T11:58:57.673Z,8.85
2018-08-16T11:59:59.889Z,10.20
2018-08-16T12:01:02.100Z,8.43
2018-08-16T12:02:04.357Z,10.38
2018-08-16T12:03:06.493Z,10.68
2018-08-16T12:04:08.640Z,9.93
2018-08-16T12:05:10.816Z,8.58
2018-08-16T12:06:13.001Z,10.38
2018-08-16T12:07:15.230Z,9.88
2018-08-16T12:08:17.377Z,7.67
2018-08-16T12:09:19.505Z,9.88
2018-08-16T12:10:21.674Z,11.38
2018-08-16T12:11:23.825Z,8.03
2018-08-16T12:12:26.016Z,7.72
2018-08-16T12:13:28.182Z,11.65
2018-08-16T12:14:30.386Z,7.70
2018-08-16T12:15:32.501Z,7.60
2018-08-16T12:16:34.802Z,9.60
2018-08-16T12:17:36.969Z,9.78
2018-08-16T12:18:39.154Z,7.35
2018-08-16T12:19:41.312Z,8.98
2018-08-16T12:20:43.498Z,10.93
2018-08-16T12:21:45.650Z,9.95
2018-08-16T12:22:47.862Z,8.33
2018-08-16T12:23:50.626Z,7.83
2018-08-16T12:24:52.790Z,10.13
2018-08-16T12:25:54.966Z,9.10
2018-08-16T12:26:57.149Z,7.67
2018-08-16T12:27:59.319Z,7.55
2018-08-16T12:29:01.514Z,9.15
2018-08-16T12:30:05.145Z,9.18
2018-08-16T12:31:07.437Z,9.78
2018-08-16T12:32:09.622Z,8.95
2018-08-16T12:33:11.779Z,8.48
2018-08-16T12:34:13.946Z,10.50
2018-08-16T12:35:16.123Z,9.65
2018-08-16T12:36:18.303Z,11.93
2018-08-16T12:37:20.479Z,7.35
2018-08-16T12:38:22.681Z,9.75
2018-08-16T12:39:24.890Z,10.10
2018-08-16T12:40:27.099Z,10.45
2018-08-16T12:41:29.255Z,8.83
2018-08-16T12:42:31.430Z,7.70
2018-08-16T12:43:35.029Z,11.83
2018-08-16T12:44:37.188Z,7.28
2018-08-16T12:45:39.359Z,9.80
2018-08-16T12:46:41.527Z,9.70
2018-08-16T12:47:43.844Z,9.30
2018-08-16T12:48:45.968Z,9.73
2018-08-16T12:49:48.098Z,10.13
2018-08-16T12:50:50.238Z,10.03
2018-08-16T12:51:52.398Z,8.33
2018-08-16T12:52:54.567Z,11.08
2018-08-16T12:53:56.717Z,10.28
2018-08-16T12:54:58.891Z,9.10
2018-08-16T12:56:01.069Z,8.15
2018-08-16T12:57:03.343Z,10.82
2018-08-16T12:58:05.541Z,8.83
2018-08-16T12:59:07.751Z,7.97
2018-08-16T13:00:13.498Z,9.30
2018-08-16T13:01:15.637Z,7.85
2018-08-16T13:02:17.826Z,11.60
2018-08-16T13:03:19.999Z,9.25
2018-08-16T13:04:22.238Z,7.75
2018-08-16T13:05:24.835Z,9.03
2018-08-16T13:06:26.997Z,9.35
2018-08-16T13:07:29.191Z,8.03
2018-08-16T13:08:31.366Z,8.63
2018-08-16T13:09:33.534Z,8.40
2018-08-16T13:10:35.746Z,7.15
2018-08-16T13:11:38.497Z,9.35
2018-08-16T13:12:40.714Z,6.90
2018-08-16T13:13:42.922Z,7.95
2018-08-16T13:14:45.078Z,9.23
2018-08-16T13:15:47.271Z,7.28
2018-08-16T13:16:49.434Z,8.78
2018-08-16T13:17:51.628Z,8.85
2018-08-16T13:18:53.801Z,7.47
2018-08-16T13:19:56.010Z,7.65
2018-08-16T13:20:58.201Z,8.00
2018-08-16T13:22:00.399Z,9.68
2018-08-16T13:23:02.562Z,9.15
2018-08-16T13:24:04.762Z,9.90
2018-08-16T13:25:07.477Z,12.07
2018-08-16T13:26:09.644Z,8.98
2018-08-16T13:27:11.857Z,10.13
2018-08-16T13:28:14.446Z,10.35
2018-08-16T13:29:16.590Z,8.70
2018-08-16T13:30:18.768Z,10.05
2018-08-16T13:31:21.057Z,8.15
2018-08-16T13:32:23.205Z,7.62
2018-08-16T13:33:25.487Z,7.67
2018-08-16T13:34:27.677Z,7.20
2018-08-16T13:35:29.862Z,7.12
2018-08-16T13:36:32.067Z,7.97
2018-08-16T13:37:34.228Z,6.10
2018-08-16T13:38:36.407Z,8.40